Airfield :
LOGIN :

Register | Disclaimer

   EN    FR    IT 

 










Legend :    VFR   Marginal VFR   IFR   Intensive IFR   Very Intensive IFR
Visi :
Ceiling :
>= 8 km
>= 3000ft
5 to 8 km
1000 to 3000 ft
1500m to 5 km
500 to 1000 ft
800 to 1500m
200 to 500 ft
< 800m
< 200 ft
Symbols :   Thunderstorms  Fog  Heavy snow  Heavy precipitations  Wind > 20 kt
SIGMETs :     Misc.  Thunderstorms  Icing  Turbulence  Mountain Waves  Volcanic Ashes







- Airport Elevation : 55 ft
- IATA code : DSA
- Download approach charts


EGCN - Robin Hood Doncaster Sheffield

CURRENT METAR :
  • 222050Z 23010KT 9999 SCT024 BKN035 11/08 Q1026

EXPIRED METARs :
  • 222020Z 19007KT 9999 BKN024 12/08 Q1026
  • 221950Z 21007KT 9999 SCT025 BKN030 12/08 Q1025
  • 221920Z 22010KT 9999 BKN025 BKN031 12/07 Q1025
  • 221850Z 23013KT 9999 BKN025 OVC036 12/08 Q1025
  • 221820Z 22013KT 9999 BKN027 BKN033 12/08 Q1025
  • 221750Z 22012KT 9999 SCT032 BKN038 13/08 Q1025

TAF TAF EGCN
Valid from the 22 at 18:00 until the 23 at 18:00 UTC


221702Z 2218/2318 22016KT 9999 FEW012 BKN030
TEMPO 2218/2221 6000 RA BKN012
BECMG 2221/2224 29006KT CAVOK
No reported NOTAMs for that airfield.



MET'MAP, your aeronautical weather chart ! - Copyright ORBIFLY December 2007 - Disclaimer

ORBIFLY MET'MAP TEAM :

Programming & Development : Alexandra Zaïnal
Concept & Development : Baudouin d'Aumeries
Co-Development & Prog : Marc-Olivier Méhu
Technical & hardware support : Manuel Goepfert

Contact : metmap@orbifly.com




SOURCES & CREDITS :

   NOAA